createdAt,value
2022-09-28T00:00:18.602Z,78.41
2022-09-28T00:02:45.353Z,77.94
2022-09-28T00:05:12.043Z,78.59
2022-09-28T00:07:38.882Z,78.67
2022-09-28T00:10:05.899Z,77.83
2022-09-28T00:12:32.541Z,77.88
2022-09-28T00:14:59.112Z,77.53
2022-09-28T00:17:25.754Z,76.97
2022-09-28T00:19:52.501Z,77.08
2022-09-28T00:22:19.232Z,77.50
2022-09-28T00:24:45.806Z,77.71
2022-09-28T00:27:12.521Z,77.05
2022-09-28T00:29:39.112Z,76.22
2022-09-28T00:32:09.769Z,76.16
2022-09-28T00:34:38.773Z,75.06
2022-09-28T00:37:07.144Z,75.62
2022-09-28T00:39:33.771Z,75.34
2022-09-28T00:42:00.549Z,75.25
2022-09-28T00:44:27.218Z,75.64
2022-09-28T00:47:12.688Z,75.67
2022-09-28T00:50:03.211Z,75.13
2022-09-28T00:52:38.709Z,75.04
2022-09-28T00:55:09.625Z,75.34
2022-09-28T00:57:39.891Z,75.64
2022-09-28T01:00:07.309Z,75.19
2022-09-28T01:02:34.221Z,75.32
2022-09-28T01:05:03.197Z,74.88
2022-09-28T01:07:32.049Z,75.26
2022-09-28T01:09:58.943Z,75.09
2022-09-28T01:12:25.679Z,75.42
2022-09-28T01:14:52.744Z,75.67
2022-09-28T01:17:37.090Z,75.79
2022-09-28T01:20:13.440Z,76.49
2022-09-28T01:22:40.507Z,76.34
2022-09-28T01:25:40.709Z,76.22
2022-09-28T01:28:19.902Z,76.13
2022-09-28T01:30:58.634Z,75.79
2022-09-28T01:33:32.471Z,76.11
2022-09-28T01:36:25.317Z,76.59
2022-09-28T01:39:28.844Z,76.20
2022-09-28T01:42:00.763Z,76.19
2022-09-28T01:44:30.780Z,76.59
2022-09-28T01:46:59.531Z,75.99
2022-09-28T01:49:34.068Z,75.98
2022-09-28T01:52:21.854Z,75.79
2022-09-28T01:55:09.563Z,75.55
2022-09-28T01:57:42.444Z,75.44
2022-09-28T02:00:13.859Z,75.41
2022-09-28T02:03:21.574Z,75.39
2022-09-28T02:06:07.895Z,75.03
2022-09-28T02:08:40.170Z,75.49
2022-09-28T02:11:17.978Z,74.96
2022-09-28T02:14:00.752Z,75.55
2022-09-28T02:16:41.231Z,75.06
2022-09-28T02:19:29.178Z,75.37
2022-09-28T02:22:02.625Z,75.64
2022-09-28T02:24:40.165Z,75.30
2022-09-28T02:27:20.626Z,75.91
2022-09-28T02:29:48.524Z,76.13
2022-09-28T02:32:16.825Z,76.16
2022-09-28T02:34:43.742Z,76.21
2022-09-28T02:37:10.638Z,76.27
2022-09-28T02:39:37.410Z,77.08
2022-09-28T02:42:06.965Z,77.58
2022-09-28T02:45:00.344Z,78.20
2022-09-28T02:47:48.235Z,78.47
2022-09-28T02:50:21.221Z,79.23
2022-09-28T02:53:07.601Z,78.57
2022-09-28T02:55:52.596Z,79.19
2022-09-28T02:58:52.645Z,79.17
2022-09-28T03:01:40.761Z,79.62
2022-09-28T03:04:19.088Z,79.47
2022-09-28T03:06:48.096Z,79.60
2022-09-28T03:09:23.281Z,79.32
2022-09-28T03:12:06.596Z,79.35
2022-09-28T03:14:33.576Z,79.31
2022-09-28T03:17:00.237Z,79.53
2022-09-28T03:19:31.418Z,79.46
2022-09-28T03:21:59.327Z,79.40
2022-09-28T03:24:26.622Z,78.86
2022-09-28T03:26:53.344Z,79.23
2022-09-28T03:29:20.188Z,79.29
2022-09-28T03:31:51.466Z,79.60
2022-09-28T03:34:18.399Z,79.37
2022-09-28T03:36:45.041Z,79.63
2022-09-28T03:39:11.904Z,79.52
2022-09-28T03:41:38.558Z,78.83
2022-09-28T03:44:05.517Z,79.12
2022-09-28T03:46:33.132Z,78.27
2022-09-28T03:49:05.160Z,78.69
2022-09-28T03:51:31.977Z,78.49
2022-09-28T03:53:58.614Z,79.01
2022-09-28T03:56:25.839Z,78.43
2022-09-28T03:58:52.725Z,78.55
2022-09-28T04:01:19.496Z,78.56
2022-09-28T04:03:47.734Z,78.70
2022-09-28T04:06:15.360Z,78.41
2022-09-28T04:08:42.147Z,79.06
2022-09-28T04:11:08.938Z,79.69
2022-09-28T04:13:35.672Z,79.67
2022-09-28T04:16:02.493Z,79.52
2022-09-28T04:18:33.201Z,79.52
2022-09-28T04:21:21.361Z,79.40
2022-09-28T04:23:53.577Z,79.18
2022-09-28T04:26:23.698Z,79.52
2022-09-28T04:28:50.931Z,79.57
2022-09-28T04:31:21.639Z,79.45
2022-09-28T04:33:48.905Z,79.50
2022-09-28T04:36:15.678Z,80.18
2022-09-28T04:38:52.770Z,80.11
2022-09-28T04:41:22.623Z,80.25
2022-09-28T04:43:50.423Z,79.80
2022-09-28T04:46:17.594Z,79.84
2022-09-28T04:48:52.846Z,79.51
2022-09-28T04:51:35.422Z,80.44
2022-09-28T04:54:02.246Z,80.05
2022-09-28T04:56:28.826Z,79.86
2022-09-28T04:58:55.518Z,79.36
2022-09-28T05:01:22.885Z,79.32
2022-09-28T05:04:07.940Z,79.43
2022-09-28T05:06:51.080Z,80.43
2022-09-28T05:09:18.042Z,80.05
2022-09-28T05:11:44.843Z,80.75
2022-09-28T05:14:16.586Z,80.13
2022-09-28T05:16:44.699Z,79.80
2022-09-28T05:19:26.749Z,80.51
2022-09-28T05:21:58.780Z,79.21
2022-09-28T05:24:25.424Z,79.95
2022-09-28T05:26:53.560Z,80.15
2022-09-28T05:29:20.317Z,80.17
2022-09-28T05:32:05.707Z,80.26
2022-09-28T05:34:52.904Z,79.75
2022-09-28T05:37:25.149Z,79.44
2022-09-28T05:39:51.899Z,79.29
2022-09-28T05:42:18.522Z,79.47
2022-09-28T05:44:45.409Z,79.46
2022-09-28T05:47:12.413Z,79.50
2022-09-28T05:49:39.242Z,79.37
2022-09-28T05:52:05.984Z,78.73
2022-09-28T05:54:37.045Z,78.95
2022-09-28T05:57:05.502Z,78.71
2022-09-28T05:59:32.375Z,78.76
2022-09-28T06:02:01.115Z,79.02
2022-09-28T06:04:27.833Z,78.77
2022-09-28T06:06:55.245Z,78.90
2022-09-28T06:09:25.811Z,79.28
2022-09-28T06:11:55.577Z,79.59
2022-09-28T06:14:32.749Z,78.51
2022-09-28T06:16:59.484Z,79.10
2022-09-28T06:19:26.213Z,79.58
2022-09-28T06:22:28.045Z,81.20
2022-09-28T06:25:00.739Z,81.44
2022-09-28T06:27:27.412Z,81.66
2022-09-28T06:29:54.121Z,82.77
2022-09-28T06:32:20.767Z,83.43
2022-09-28T06:34:52.845Z,83.25
2022-09-28T06:37:24.419Z,82.76
2022-09-28T06:39:51.135Z,82.53
2022-09-28T06:42:17.971Z,83.27
2022-09-28T06:45:16.716Z,83.42
2022-09-28T06:48:04.708Z,84.48
2022-09-28T06:50:39.448Z,86.41
2022-09-28T06:53:14.021Z,86.14
2022-09-28T06:55:55.065Z,86.83
2022-09-28T06:58:22.845Z,86.61
2022-09-28T07:00:53.172Z,88.11
2022-09-28T07:03:22.794Z,88.23
2022-09-28T07:06:12.859Z,88.73
2022-09-28T07:08:45.347Z,88.95
2022-09-28T07:11:39.249Z,88.21
2022-09-28T07:14:41.373Z,88.58
2022-09-28T07:17:14.136Z,89.39
2022-09-28T07:19:42.547Z,90.93
2022-09-28T07:22:09.732Z,90.93
2022-09-28T07:24:36.467Z,91.02
2022-09-28T07:27:26.789Z,90.67
2022-09-28T07:30:13.510Z,91.23
2022-09-28T07:32:57.992Z,91.37
2022-09-28T07:35:56.786Z,89.88
2022-09-28T07:38:27.733Z,90.47
2022-09-28T07:40:56.800Z,89.99
2022-09-28T07:43:24.593Z,89.63
2022-09-28T07:45:54.926Z,88.87
2022-09-28T07:48:26.396Z,89.88
2022-09-28T07:51:08.547Z,89.95
2022-09-28T07:53:50.777Z,89.14
2022-09-28T07:56:40.393Z,88.44
2022-09-28T07:59:29.399Z,89.30
2022-09-28T08:02:18.642Z,89.44
2022-09-28T08:05:09.999Z,90.07
2022-09-28T08:07:38.342Z,89.59
2022-09-28T08:10:28.427Z,89.68
2022-09-28T08:13:07.534Z,89.54
2022-09-28T08:16:04.826Z,90.17
2022-09-28T08:18:58.290Z,90.04
2022-09-28T08:21:25.600Z,89.89
2022-09-28T08:23:52.357Z,90.03
2022-09-28T08:26:19.095Z,88.25
2022-09-28T08:28:46.955Z,87.54
2022-09-28T08:31:40.081Z,86.95
2022-09-28T08:34:25.883Z,86.12
2022-09-28T08:37:10.853Z,85.10
2022-09-28T08:39:56.361Z,87.32
2022-09-28T08:42:42.865Z,85.78
2022-09-28T08:45:30.779Z,85.75
2022-09-28T08:48:07.021Z,85.51
2022-09-28T08:51:19.595Z,84.64
2022-09-28T08:54:12.654Z,86.09
2022-09-28T08:57:05.750Z,83.12
2022-09-28T08:59:55.299Z,82.70
2022-09-28T09:02:31.635Z,79.12
2022-09-28T09:05:16.175Z,77.25
2022-09-28T09:08:25.858Z,76.88
2022-09-28T09:10:59.410Z,78.11
2022-09-28T09:14:06.881Z,77.95
2022-09-28T09:16:54.629Z,78.41
2022-09-28T09:20:18.379Z,76.68
2022-09-28T09:23:31.070Z,76.48
2022-09-28T09:26:26.328Z,75.91
2022-09-28T09:28:56.499Z,75.81
2022-09-28T09:31:49.399Z,74.68
2022-09-28T09:34:37.513Z,75.46
2022-09-28T09:38:20.875Z,74.46
2022-09-28T09:41:11.297Z,76.29
2022-09-28T09:44:50.139Z,75.29
2022-09-28T09:47:53.398Z,75.40
2022-09-28T09:50:23.509Z,75.18
2022-09-28T09:52:53.286Z,74.47
2022-09-28T09:55:29.830Z,75.55
2022-09-28T09:58:25.456Z,73.33
2022-09-28T10:01:08.260Z,72.24
2022-09-28T10:03:58.676Z,71.47
2022-09-28T10:06:32.244Z,68.96
2022-09-28T10:09:10.833Z,71.97
2022-09-28T10:11:43.648Z,71.68
2022-09-28T10:14:16.553Z,72.08
2022-09-28T10:16:55.740Z,74.27
2022-09-28T10:19:42.225Z,72.92
2022-09-28T10:22:48.448Z,72.89
2022-09-28T10:25:18.730Z,70.55
2022-09-28T10:27:48.523Z,70.63
2022-09-28T10:30:25.680Z,71.25
2022-09-28T10:32:54.363Z,72.16
2022-09-28T10:35:24.351Z,71.77
2022-09-28T10:37:59.319Z,71.87
2022-09-28T10:40:55.262Z,70.21
2022-09-28T10:44:02.339Z,70.46
2022-09-28T10:46:29.344Z,72.11
2022-09-28T10:49:16.920Z,72.28
2022-09-28T10:51:52.595Z,72.11
2022-09-28T10:54:28.440Z,73.79
2022-09-28T10:56:58.773Z,74.54
2022-09-28T10:59:46.536Z,75.57
2022-09-28T11:02:36.337Z,77.24
2022-09-28T11:05:21.716Z,77.66
2022-09-28T11:07:49.360Z,77.37
2022-09-28T11:10:26.436Z,76.84
2022-09-28T11:12:57.711Z,75.77
2022-09-28T11:15:30.292Z,77.54
2022-09-28T11:18:19.086Z,79.43
2022-09-28T11:20:45.913Z,79.44
2022-09-28T11:23:30.359Z,76.52
2022-09-28T11:26:08.577Z,72.25
2022-09-28T11:28:37.549Z,73.98
2022-09-28T11:31:11.758Z,75.38
2022-09-28T11:34:57.577Z,72.61
2022-09-28T11:37:31.633Z,73.52
2022-09-28T11:40:05.553Z,72.41
2022-09-28T11:42:44.484Z,70.75
2022-09-28T11:45:29.608Z,73.56
2022-09-28T11:48:03.786Z,72.45
2022-09-28T11:50:47.726Z,73.23
2022-09-28T11:53:27.369Z,72.30
2022-09-28T11:56:18.582Z,71.98
2022-09-28T11:58:55.665Z,71.58
2022-09-28T12:01:42.365Z,72.08
2022-09-28T12:04:52.366Z,71.97
2022-09-28T12:07:28.218Z,74.31
2022-09-28T12:09:59.597Z,74.41
2022-09-28T12:12:49.537Z,74.37
2022-09-28T12:15:19.107Z,75.32
2022-09-28T12:17:54.710Z,75.78
2022-09-28T12:20:26.912Z,74.17
2022-09-28T12:22:53.548Z,78.80
2022-09-28T12:25:23.080Z,76.48
2022-09-28T12:28:01.638Z,77.31
2022-09-28T12:30:33.055Z,72.73
2022-09-28T12:33:06.956Z,72.74
2022-09-28T12:35:54.767Z,74.16
2022-09-28T12:38:40.186Z,74.10
2022-09-28T12:41:18.985Z,72.05
2022-09-28T12:44:15.078Z,72.00
2022-09-28T12:46:56.901Z,71.29
2022-09-28T12:52:37.320Z,71.11
2022-09-28T12:55:13.109Z,71.41
2022-09-28T12:57:56.659Z,70.94
2022-09-28T13:00:26.008Z,70.47
2022-09-28T13:03:01.606Z,71.15
2022-09-28T13:05:50.482Z,71.61
2022-09-28T13:08:29.795Z,70.74
2022-09-28T13:11:07.905Z,69.69
2022-09-28T13:13:53.077Z,70.31
2022-09-28T13:16:27.734Z,67.75
2022-09-28T13:19:20.366Z,69.29
2022-09-28T13:21:51.906Z,68.21
2022-09-28T13:24:33.150Z,70.59
2022-09-28T13:27:09.710Z,70.94
2022-09-28T13:32:08.061Z,72.41
2022-09-28T13:34:36.743Z,76.45
2022-09-28T13:37:15.595Z,76.89
2022-09-28T13:39:45.445Z,78.31
2022-09-28T13:42:24.133Z,80.58
2022-09-28T13:45:02.424Z,80.56
2022-09-28T13:47:32.469Z,81.45
2022-09-28T13:50:28.319Z,80.10
2022-09-28T13:53:10.582Z,80.54
2022-09-28T13:55:59.224Z,79.65
2022-09-28T13:58:59.412Z,80.65
2022-09-28T14:01:52.342Z,79.39
2022-09-28T14:04:22.765Z,80.53
2022-09-28T14:06:55.594Z,81.27
2022-09-28T14:09:29.995Z,81.36
2022-09-28T14:12:01.515Z,79.92
2022-09-28T14:14:46.247Z,80.19
2022-09-28T14:17:19.057Z,80.96
2022-09-28T14:19:52.580Z,80.02
2022-09-28T14:22:30.347Z,79.44
2022-09-28T14:25:22.796Z,80.26
2022-09-28T14:27:52.653Z,78.97
2022-09-28T14:30:25.549Z,78.78
2022-09-28T14:33:00.300Z,79.65
2022-09-28T14:35:31.944Z,79.58
2022-09-28T14:38:33.228Z,78.85
2022-09-28T14:41:04.456Z,78.77
2022-09-28T14:43:34.483Z,77.93
2022-09-28T14:46:10.207Z,78.63
2022-09-28T14:48:50.582Z,77.88
2022-09-28T14:51:26.546Z,78.50
2022-09-28T14:53:55.309Z,78.30
2022-09-28T14:56:22.269Z,77.29
2022-09-28T14:58:57.095Z,77.86
2022-09-28T15:01:25.884Z,76.94
2022-09-28T15:03:58.515Z,77.46
2022-09-28T15:06:26.159Z,77.11
2022-09-28T15:08:52.727Z,76.54
2022-09-28T15:11:25.517Z,75.45
2022-09-28T15:14:05.935Z,78.24
2022-09-28T15:16:33.398Z,79.53
2022-09-28T15:19:25.562Z,79.70
2022-09-28T15:21:52.715Z,80.80
2022-09-28T15:24:25.222Z,79.35
2022-09-28T15:26:52.033Z,79.43
2022-09-28T15:29:20.740Z,78.96
2022-09-28T15:31:51.060Z,79.57
2022-09-28T15:34:46.840Z,78.74
2022-09-28T15:37:16.824Z,77.26
2022-09-28T15:39:43.645Z,77.22
2022-09-28T15:42:10.489Z,77.87
2022-09-28T15:44:38.574Z,76.93
2022-09-28T15:47:26.195Z,76.78
2022-09-28T15:50:05.829Z,76.32
2022-09-28T15:52:37.941Z,76.10
2022-09-28T15:55:18.536Z,75.65
2022-09-28T15:57:45.354Z,76.00
2022-09-28T16:00:21.021Z,76.25
2022-09-28T16:03:06.708Z,77.18
2022-09-28T16:05:36.333Z,77.85
2022-09-28T16:08:05.325Z,78.57
2022-09-28T16:10:34.045Z,78.62
2022-09-28T16:13:16.117Z,77.81
2022-09-28T16:15:43.771Z,76.41
2022-09-28T16:18:13.251Z,75.61
2022-09-28T16:20:41.734Z,75.67
2022-09-28T16:23:17.354Z,75.09
2022-09-28T16:25:56.696Z,74.68
2022-09-28T16:28:38.620Z,74.67
2022-09-28T16:31:23.158Z,74.23
2022-09-28T16:33:58.894Z,74.18
2022-09-28T16:36:28.009Z,74.28
2022-09-28T16:38:54.629Z,73.88
2022-09-28T16:41:27.582Z,73.79
2022-09-28T16:43:58.150Z,73.65
2022-09-28T16:46:32.828Z,73.44
2022-09-28T16:48:59.585Z,74.40
2022-09-28T16:51:26.136Z,74.80
2022-09-28T16:53:53.100Z,75.22
2022-09-28T16:56:19.689Z,74.85
2022-09-28T16:58:47.676Z,73.71
2022-09-28T17:01:14.397Z,73.46
2022-09-28T17:03:41.179Z,73.01
2022-09-28T17:06:11.879Z,72.42
2022-09-28T17:08:38.725Z,71.43
2022-09-28T17:11:24.456Z,71.63
2022-09-28T17:13:51.964Z,71.58
2022-09-28T17:16:32.624Z,72.09
2022-09-28T17:19:19.230Z,73.17
2022-09-28T17:21:47.785Z,73.32
2022-09-28T17:24:14.443Z,73.48
2022-09-28T17:26:41.561Z,73.35
2022-09-28T17:29:12.105Z,73.26
2022-09-28T17:31:39.018Z,73.26
2022-09-28T17:34:05.643Z,73.65
2022-09-28T17:36:32.367Z,73.87
2022-09-28T17:38:58.975Z,74.75
2022-09-28T17:41:28.721Z,74.60
2022-09-28T17:44:02.929Z,75.19
2022-09-28T17:46:34.645Z,75.35
2022-09-28T17:49:04.098Z,75.26
2022-09-28T17:51:33.192Z,75.55
2022-09-28T17:54:01.013Z,75.62
2022-09-28T17:56:32.184Z,76.13
2022-09-28T17:59:05.571Z,76.14
2022-09-28T18:01:33.237Z,76.45
2022-09-28T18:04:04.253Z,76.59
2022-09-28T18:06:31.808Z,76.70
2022-09-28T18:08:58.376Z,76.16
2022-09-28T18:11:25.302Z,76.15
2022-09-28T18:13:51.958Z,76.42
2022-09-28T18:16:18.978Z,75.66
2022-09-28T18:18:45.753Z,75.94
2022-09-28T18:21:12.601Z,75.97
2022-09-28T18:23:39.295Z,75.67
2022-09-28T18:26:13.721Z,75.46
2022-09-28T18:28:40.531Z,75.18
2022-09-28T18:31:12.937Z,75.21
2022-09-28T18:33:52.295Z,75.37
2022-09-28T18:36:18.991Z,75.88
2022-09-28T18:38:45.577Z,76.20
2022-09-28T18:41:15.023Z,75.64
2022-09-28T18:43:42.923Z,76.09
2022-09-28T18:46:11.464Z,77.13
2022-09-28T18:48:38.862Z,77.27
2022-09-28T18:51:08.870Z,77.48
2022-09-28T18:53:35.508Z,77.49
2022-09-28T18:56:07.518Z,77.45
2022-09-28T18:58:36.422Z,77.68
2022-09-28T19:01:29.339Z,78.08
2022-09-28T19:03:59.573Z,78.29
2022-09-28T19:06:26.233Z,78.77
2022-09-28T19:08:54.089Z,79.18
2022-09-28T19:11:20.833Z,78.78
2022-09-28T19:13:47.629Z,79.05
2022-09-28T19:16:20.197Z,79.82
2022-09-28T19:18:48.054Z,80.19
2022-09-28T19:21:15.857Z,80.56
2022-09-28T19:23:48.225Z,81.01
2022-09-28T19:26:19.048Z,81.06
2022-09-28T19:28:48.782Z,80.54
2022-09-28T19:31:18.906Z,80.85
2022-09-28T19:33:45.585Z,80.89
2022-09-28T19:36:15.569Z,81.13
2022-09-28T19:38:42.176Z,81.01
2022-09-28T19:41:20.557Z,80.69
2022-09-28T19:43:47.394Z,80.69
2022-09-28T19:46:14.108Z,80.56
2022-09-28T19:48:41.092Z,80.13
2022-09-28T19:51:07.724Z,80.50
2022-09-28T19:53:36.284Z,80.47
2022-09-28T19:56:04.848Z,80.44
2022-09-28T19:58:34.227Z,80.67
2022-09-28T20:01:04.469Z,80.72
2022-09-28T20:03:31.147Z,80.76
2022-09-28T20:05:58.940Z,81.11
2022-09-28T20:08:26.372Z,81.15
2022-09-28T20:10:54.802Z,80.82
2022-09-28T20:13:22.545Z,80.94
2022-09-28T20:15:49.348Z,80.89
2022-09-28T20:18:16.170Z,81.05
2022-09-28T20:20:42.760Z,80.51
2022-09-28T20:23:09.791Z,80.77
2022-09-28T20:25:36.617Z,81.10
2022-09-28T20:28:03.385Z,80.79
2022-09-28T20:30:29.955Z,81.03
2022-09-28T20:32:56.843Z,80.87
2022-09-28T20:35:32.739Z,80.43
2022-09-28T20:38:00.104Z,79.94
2022-09-28T20:40:26.798Z,79.55
2022-09-28T20:42:53.597Z,78.96
2022-09-28T20:45:20.284Z,78.58
2022-09-28T20:47:46.929Z,78.40
2022-09-28T20:50:13.593Z,77.58
2022-09-28T20:52:40.326Z,77.78
2022-09-28T20:55:07.275Z,77.45
2022-09-28T20:57:33.903Z,76.73
2022-09-28T21:00:00.711Z,76.17
2022-09-28T21:02:27.478Z,75.79
2022-09-28T21:04:59.441Z,75.38
2022-09-28T21:07:26.309Z,75.23
2022-09-28T21:09:52.911Z,75.15
2022-09-28T21:12:19.559Z,75.91
2022-09-28T21:14:46.186Z,76.33
2022-09-28T21:17:13.012Z,75.96
2022-09-28T21:19:39.770Z,76.10
2022-09-28T21:22:06.507Z,76.10
2022-09-28T21:24:33.079Z,75.73
2022-09-28T21:26:59.732Z,76.01
2022-09-28T21:29:26.401Z,75.22
2022-09-28T21:31:53.053Z,75.83
2022-09-28T21:34:21.319Z,75.87
2022-09-28T21:36:51.638Z,75.39
2022-09-28T21:39:19.939Z,76.08
2022-09-28T21:41:46.631Z,76.73
2022-09-28T21:44:13.360Z,76.76
2022-09-28T21:46:40.072Z,76.04
2022-09-28T21:49:08.041Z,76.39
2022-09-28T21:51:35.680Z,77.08
2022-09-28T21:54:02.276Z,76.99
2022-09-28T21:56:28.940Z,76.90
2022-09-28T21:58:55.559Z,76.86
2022-09-28T22:01:24.443Z,76.62
2022-09-28T22:03:53.667Z,76.50
2022-09-28T22:06:22.762Z,76.50
2022-09-28T22:08:49.772Z,76.39
2022-09-28T22:11:20.031Z,76.94
2022-09-28T22:13:49.210Z,76.57
2022-09-28T22:16:18.127Z,76.10
2022-09-28T22:18:45.657Z,75.86
2022-09-28T22:21:30.869Z,75.38
2022-09-28T22:23:59.021Z,75.93
2022-09-28T22:26:26.445Z,76.61
2022-09-28T22:28:56.022Z,76.11
2022-09-28T22:31:26.278Z,76.73
2022-09-28T22:33:53.648Z,76.92
2022-09-28T22:36:21.353Z,77.95
2022-09-28T22:38:48.788Z,77.77
2022-09-28T22:41:17.428Z,77.25
2022-09-28T22:43:44.424Z,77.54
2022-09-28T22:46:16.966Z,77.95
2022-09-28T22:48:51.798Z,78.79
2022-09-28T22:51:19.116Z,78.04
2022-09-28T22:53:46.131Z,78.40
2022-09-28T22:56:18.211Z,77.94
2022-09-28T22:58:46.124Z,78.02
2022-09-28T23:01:18.663Z,77.64
2022-09-28T23:03:46.198Z,78.05
2022-09-28T23:06:15.371Z,77.65
2022-09-28T23:08:42.376Z,77.58
2022-09-28T23:11:09.072Z,78.55
2022-09-28T23:13:35.855Z,78.73
2022-09-28T23:16:05.082Z,78.61
2022-09-28T23:18:35.652Z,78.56
2022-09-28T23:21:04.850Z,78.75
2022-09-28T23:23:32.679Z,78.25
2022-09-28T23:25:59.667Z,78.53
2022-09-28T23:28:27.381Z,78.21
2022-09-28T23:30:54.441Z,78.09
2022-09-28T23:33:22.011Z,77.67
2022-09-28T23:35:48.988Z,77.69
2022-09-28T23:38:17.601Z,77.24
2022-09-28T23:40:47.727Z,77.73
2022-09-28T23:43:14.877Z,77.79
2022-09-28T23:45:44.999Z,78.05
2022-09-28T23:48:12.102Z,77.95
2022-09-28T23:50:38.746Z,78.06
2022-09-28T23:53:05.458Z,77.77
2022-09-28T23:55:32.138Z,77.50
2022-09-28T23:57:58.844Z,78.78
